Time;durP1;ratioP1;P1;durP2;ratioP2;P2;SDS_P1;SDS_P2;PMS_P1;PMS_P2;Temp;Humidity;BMP_temperature;BMP_pressure;BME280_temperature;BME280_humidity;BME280_pressure;Samples;Min_cycle;Max_cycle;Signal;HPM_P1;HPM_P2
2022/03/23 00:01:42;;;;;;;64.50;36.33;;;;;;;5.87;45.53;101750.28;5085895;28;20040;-74
2022/03/23 00:04:09;;;;;;;60.85;33.03;;;;;;;5.85;45.73;101747.72;5083749;28;20078;-73
2022/03/23 00:06:37;;;;;;;64.75;32.38;;;;;;;5.82;45.85;101741.72;5084641;28;20099;-73
2022/03/23 00:09:04;;;;;;;56.80;32.10;;;;;;;5.89;45.71;101746.72;5085323;28;20044;-72
2022/03/23 00:11:33;;;;;;;65.78;37.65;;;;;;;5.93;45.67;101739.63;5085387;28;20064;-73
2022/03/23 00:14:00;;;;;;;67.38;35.97;;;;;;;5.91;45.76;101741.44;5083809;28;20051;-75
2022/03/23 00:16:29;;;;;;;74.78;36.75;;;;;;;5.89;45.78;101738.88;5085340;28;20048;-76
2022/03/23 00:18:56;;;;;;;72.88;37.08;;;;;;;5.83;45.67;101733.78;5087081;28;20117;-75
2022/03/23 00:21:24;;;;;;;73.60;37.42;;;;;;;5.72;45.90;101741.94;5088613;28;20103;-77
2022/03/23 00:23:50;;;;;;;69.68;40.50;;;;;;;5.58;45.96;101736.25;5089291;28;20685;-73
2022/03/23 00:26:17;;;;;;;72.13;37.72;;;;;;;5.48;46.17;101733.03;5088946;28;20548;-74
2022/03/23 00:28:45;;;;;;;75.65;41.78;;;;;;;5.38;46.06;101742.03;5087951;28;20075;-74
2022/03/23 00:31:12;;;;;;;77.82;41.65;;;;;;;5.17;46.33;101739.09;5088241;28;20527;-73
2022/03/23 00:33:40;;;;;;;79.30;40.45;;;;;;;4.98;46.75;101740.47;5093125;28;20233;-75
2022/03/23 00:36:09;;;;;;;81.05;42.05;;;;;;;4.86;46.56;101732.91;5087138;28;20115;-72
2022/03/23 00:38:36;;;;;;;72.78;42.50;;;;;;;4.71;46.81;101742.84;5085690;28;20056;-74
2022/03/23 00:41:04;;;;;;;72.13;41.28;;;;;;;4.55;47.05;101746.75;5085601;28;20047;-74
2022/03/23 00:43:31;;;;;;;76.68;40.33;;;;;;;4.45;47.00;101740.88;5084758;28;20513;-71
2022/03/23 00:45:59;;;;;;;80.35;39.08;;;;;;;4.35;47.00;101737.59;5085318;28;20048;-74
2022/03/23 00:48:26;;;;;;;76.32;41.33;;;;;;;4.26;46.89;101737.78;5085880;28;20135;-77
2022/03/23 00:50:54;;;;;;;92.63;41.10;;;;;;;4.13;47.10;101742.44;5084501;28;20366;-73
2022/03/23 00:53:21;;;;;;;75.13;38.78;;;;;;;4.00;47.19;101734.00;5086104;28;20054;-75
2022/03/23 00:55:48;;;;;;;73.13;38.17;;;;;;;3.87;47.44;101735.16;5084832;28;20071;-72
2022/03/23 00:58:15;;;;;;;77.97;40.25;;;;;;;3.79;47.60;101734.44;5085527;28;20230;-74
2022/03/23 01:00:44;;;;;;;81.93;40.67;;;;;;;3.72;47.52;101735.47;5086008;28;20054;-75
2022/03/23 01:03:11;;;;;;;74.03;37.35;;;;;;;3.63;47.69;101737.34;5082272;28;20075;-72
2022/03/23 01:05:38;;;;;;;80.95;41.53;;;;;;;3.60;47.55;101736.56;5085268;28;20055;-73
2022/03/23 01:08:07;;;;;;;92.03;42.13;;;;;;;3.53;47.92;101740.19;5085686;28;20058;-73
2022/03/23 01:10:34;;;;;;;75.80;39.80;;;;;;;3.46;47.69;101731.63;5085226;28;20046;-72
2022/03/23 01:13:02;;;;;;;79.72;40.13;;;;;;;3.44;47.95;101734.25;5084744;28;20102;-74
2022/03/23 01:15:30;;;;;;;75.25;37.90;;;;;;;3.42;48.03;101738.66;5085363;28;20063;-71
2022/03/23 01:17:57;;;;;;;87.32;38.55;;;;;;;3.36;47.99;101732.69;5084621;28;20044;-72
2022/03/23 01:20:24;;;;;;;79.68;36.17;;;;;;;3.31;48.32;101729.28;5084751;28;20044;-72
2022/03/23 01:22:51;;;;;;;74.25;36.65;;;;;;;3.27;48.36;101732.84;5084880;28;20048;-73
2022/03/23 01:25:20;;;;;;;83.10;37.70;;;;;;;3.24;48.38;101734.63;5084814;28;20050;-74
2022/03/23 01:27:48;;;;;;;74.65;35.83;;;;;;;3.20;48.25;101732.94;5085097;28;20058;-70
2022/03/23 01:30:16;;;;;;;62.90;33.13;;;;;;;3.20;48.47;101737.31;5085257;28;20044;-75
2022/03/23 01:32:44;;;;;;;58.38;33.53;;;;;;;3.14;48.06;101732.22;5085177;28;20044;-73
2022/03/23 01:35:12;;;;;;;69.70;34.80;;;;;;;3.07;48.21;101728.84;5086649;28;20056;-73
2022/03/23 01:37:39;;;;;;;69.38;35.08;;;;;;;3.01;48.38;101731.56;5089438;28;20572;-75
2022/03/23 01:40:10;;;;;;;74.15;34.60;;;;;;;3.02;48.32;101741.13;5087889;28;20134;-74
2022/03/23 01:42:39;;;;;;;65.57;34.75;;;;;;;3.01;48.51;101732.44;5089038;28;20044;-72
2022/03/23 01:45:08;;;;;;;69.68;34.55;;;;;;;3.02;48.41;101735.91;5089020;28;20087;-72
2022/03/23 01:47:35;;;;;;;84.22;37.55;;;;;;;2.99;48.50;101734.22;5087928;28;20116;-74
2022/03/23 01:50:04;;;;;;;67.20;34.00;;;;;;;2.97;48.75;101735.09;5088276;28;20048;-72
2022/03/23 01:52:32;;;;;;;78.80;37.92;;;;;;;2.97;48.41;101730.78;5087272;28;20117;-72
2022/03/23 01:54:59;;;;;;;61.25;33.08;;;;;;;2.98;48.57;101721.19;5087624;28;20048;-72
2022/03/23 01:57:26;;;;;;;66.75;35.50;;;;;;;2.94;48.84;101716.91;5088024;28;20054;-73
2022/03/23 01:59:54;;;;;;;65.28;34.20;;;;;;;2.89;49.10;101711.75;5088770;28;20055;-72
2022/03/23 02:02:21;;;;;;;67.07;36.45;;;;;;;2.91;49.01;101714.34;5087678;28;20515;-73
2022/03/23 02:04:48;;;;;;;59.13;30.40;;;;;;;2.85;49.12;101707.50;5087922;28;20468;-75
2022/03/23 02:07:15;;;;;;;64.85;35.25;;;;;;;2.77;49.19;101711.97;5088092;28;20135;-74
2022/03/23 02:09:43;;;;;;;62.20;31.65;;;;;;;2.72;49.15;101704.22;5087964;28;20049;-74
2022/03/23 02:12:11;;;;;;;60.85;30.52;;;;;;;2.68;49.21;101705.13;5088550;28;20079;-73
2022/03/23 02:14:38;;;;;;;55.83;30.38;;;;;;;2.65;49.14;101703.47;5087868;28;20079;-74
2022/03/23 02:17:07;;;;;;;65.10;33.13;;;;;;;2.59;49.18;101706.19;5088003;28;20142;-74
2022/03/23 02:19:35;;;;;;;61.83;33.03;;;;;;;2.56;49.49;101707.97;5088009;28;20115;-72
2022/03/23 02:22:04;;;;;;;56.83;29.65;;;;;;;2.52;49.33;101706.28;5087339;28;20048;-74
2022/03/23 02:24:32;;;;;;;61.08;31.60;;;;;;;2.51;49.17;101709.78;5087551;28;20411;-73
2022/03/23 02:27:00;;;;;;;56.33;29.83;;;;;;;2.49;49.24;101704.59;5088549;28;20579;-74
2022/03/23 02:29:31;;;;;;;59.17;29.48;;;;;;;2.49;49.08;101708.06;5086530;28;20110;-74
2022/03/23 02:32:00;;;;;;;56.22;30.48;;;;;;;2.46;49.21;101700.25;5087021;28;20048;-76
2022/03/23 02:34:28;;;;;;;61.00;30.50;;;;;;;2.44;49.53;101709.00;5087667;28;20079;-76
2022/03/23 02:36:55;;;;;;;62.03;34.72;;;;;;;2.42;49.43;101710.78;5086030;28;20059;-73
2022/03/23 02:39:25;;;;;;;61.25;29.92;;;;;;;2.44;49.60;101702.03;5086310;28;20040;-72
2022/03/23 02:41:53;;;;;;;59.67;32.03;;;;;;;2.47;49.74;101704.59;5087126;28;20056;-72
2022/03/23 02:44:21;;;;;;;61.65;32.58;;;;;;;2.47;49.63;101702.00;5086052;28;20079;-75
2022/03/23 02:46:48;;;;;;;63.60;32.72;;;;;;;2.47;49.76;101691.56;5086706;28;20052;-72
2022/03/23 02:49:16;;;;;;;57.15;30.17;;;;;;;2.52;49.48;101690.63;5086609;28;20051;-74
2022/03/23 02:51:44;;;;;;;58.95;30.08;;;;;;;2.56;49.59;101687.09;5086167;28;20063;-76
2022/03/23 03:02:37;;;;;;;59.85;31.08;;;;;;;2.96;49.53;101683.81;5087777;28;20062;-72
2022/03/23 03:05:05;;;;;;;50.90;25.75;;;;;;;3.00;49.22;101682.84;5084765;28;20048;-74
2022/03/23 03:08:44;;;;;;;55.10;27.25;;;;;;;3.04;49.34;101687.13;5087107;28;20604;-74
2022/03/23 03:10:20;;;;;;;58.33;29.25;;;;;;;3.10;49.54;101680.94;5088437;28;20200;-75
2022/03/23 03:12:49;;;;;;;61.03;29.10;;;;;;;3.14;49.47;101686.09;5086144;28;20060;-75
2022/03/23 03:15:18;;;;;;;74.32;42.22;;;;;;;3.22;50.14;101684.19;5087202;28;20055;-73
2022/03/23 03:17:47;;;;;;;59.47;31.55;;;;;;;3.16;50.15;101681.69;5088384;28;20253;-77
2022/03/23 03:20:15;;;;;;;57.30;30.80;;;;;;;3.13;49.96;101686.97;5085893;28;20044;-76
2022/03/23 03:22:43;;;;;;;56.10;29.92;;;;;;;3.03;49.87;101685.44;5086403;28;20075;-75
2022/03/23 03:25:14;;;;;;;57.90;32.47;;;;;;;2.96;50.16;101682.06;5085781;28;20051;-73
2022/03/23 03:27:41;;;;;;;71.38;32.35;;;;;;;2.84;49.97;101688.34;5085445;28;20065;-76
2022/03/23 03:30:11;;;;;;;56.17;36.33;;;;;;;2.79;50.24;101679.75;5085908;28;20060;-74
2022/03/23 03:32:38;;;;;;;55.03;31.65;;;;;;;2.75;49.89;101685.88;5085032;28;20487;-74
2022/03/23 03:35:06;;;;;;;60.88;32.90;;;;;;;2.72;50.10;101679.88;5083850;28;20059;-72
2022/03/23 03:37:34;;;;;;;58.90;31.65;;;;;;;2.68;49.92;101671.22;5085835;28;20135;-73
2022/03/23 03:40:01;;;;;;;62.55;32.70;;;;;;;2.64;50.28;101675.63;5085698;28;20132;-74
2022/03/23 03:42:28;;;;;;;60.17;31.70;;;;;;;2.60;50.30;101680.94;5084889;28;20131;-73
2022/03/23 03:44:55;;;;;;;65.00;34.70;;;;;;;2.52;50.17;101674.97;5085641;28;20052;-73
2022/03/23 03:47:23;;;;;;;63.85;33.58;;;;;;;2.47;50.25;101675.94;5085357;28;20605;-75
2022/03/23 03:49:51;;;;;;;62.97;32.05;;;;;;;2.39;50.43;101677.78;5085802;28;20235;-73
2022/03/23 03:52:19;;;;;;;66.10;34.80;;;;;;;2.37;50.40;101674.34;5087345;28;20131;-73
2022/03/23 03:54:46;;;;;;;56.95;33.05;;;;;;;2.36;50.54;101680.47;5084950;28;20051;-75
2022/03/23 03:57:13;;;;;;;57.38;31.23;;;;;;;2.37;50.51;101671.72;5085162;28;20048;-75
2022/03/23 03:59:40;;;;;;;65.65;32.40;;;;;;;2.34;50.55;101671.81;5086821;28;20423;-76
2022/03/23 04:02:07;;;;;;;54.25;33.05;;;;;;;2.32;50.61;101678.75;5084475;28;20047;-73
2022/03/23 04:04:36;;;;;;;66.18;34.25;;;;;;;2.29;50.87;101669.25;5083620;28;20117;-73
2022/03/23 04:07:04;;;;;;;61.88;33.95;;;;;;;2.28;50.61;101671.88;5104836;28;20063;-74
2022/03/23 04:09:31;;;;;;;57.60;32.10;;;;;;;2.23;50.70;101674.56;5106015;28;20063;-73
2022/03/23 04:11:59;;;;;;;63.63;30.90;;;;;;;2.22;50.86;101675.44;5102974;28;20060;-74
2022/03/23 04:14:25;;;;;;;59.92;32.15;;;;;;;2.20;50.69;101674.59;5085502;28;20599;-74
2022/03/23 04:16:53;;;;;;;60.75;31.05;;;;;;;2.24;50.60;101670.22;5083456;28;20044;-74
2022/03/23 04:19:20;;;;;;;56.60;28.40;;;;;;;2.28;50.62;101669.28;5085979;28;20055;-75
2022/03/23 04:21:51;;;;;;;58.88;33.05;;;;;;;2.26;50.96;101663.22;5085316;28;20060;-75
2022/03/23 04:24:18;;;;;;;55.30;29.60;;;;;;;2.24;50.70;101665.00;5084242;28;20054;-76
2022/03/23 04:26:45;;;;;;;56.92;28.67;;;;;;;2.19;50.90;101657.22;5083109;28;20525;-75
2022/03/23 04:29:12;;;;;;;58.55;31.15;;;;;;;2.20;51.01;101658.97;5085071;28;20043;-75
2022/03/23 04:31:41;;;;;;;56.75;31.30;;;;;;;2.18;51.18;101655.53;5084328;28;20123;-74
2022/03/23 04:34:08;;;;;;;59.50;32.15;;;;;;;2.18;50.87;101659.84;5063938;28;20607;-74
2022/03/23 04:36:35;;;;;;;60.33;31.33;;;;;;;2.20;50.84;101658.13;5084188;28;20131;-73
2022/03/23 04:39:03;;;;;;;57.92;30.30;;;;;;;2.27;50.88;101659.75;5083585;28;20048;-74
2022/03/23 04:41:30;;;;;;;61.30;32.80;;;;;;;2.28;51.22;101664.91;5085375;28;20127;-74
2022/03/23 04:43:57;;;;;;;62.25;33.22;;;;;;;2.33;51.09;101656.19;5085596;28;20447;-75
2022/03/23 04:46:24;;;;;;;62.17;33.40;;;;;;;2.38;51.14;101663.03;5085141;28;20076;-74
2022/03/23 04:48:51;;;;;;;62.38;33.97;;;;;;;2.49;50.97;101661.09;5086132;28;20183;-76
2022/03/23 04:51:18;;;;;;;53.30;29.75;;;;;;;2.62;51.20;101664.38;5085333;28;20050;-74
2022/03/23 04:53:45;;;;;;;52.25;28.02;;;;;;;2.80;50.89;101657.97;5085362;28;20044;-75
2022/03/23 04:56:14;;;;;;;61.13;30.35;;;;;;;3.00;50.98;101656.75;5085614;28;20094;-75
2022/03/23 04:58:42;;;;;;;60.67;30.90;;;;;;;3.13;50.79;101658.25;5085460;28;20048;-74
2022/03/23 05:01:10;;;;;;;53.92;30.70;;;;;;;3.30;50.50;101659.69;5084581;28;20066;-73
2022/03/23 05:03:36;;;;;;;54.03;30.80;;;;;;;3.47;50.51;101652.34;5083130;28;20054;-72
2022/03/23 05:06:04;;;;;;;63.83;31.55;;;;;;;3.65;50.12;101658.94;5083872;28;20381;-73
2022/03/23 05:08:31;;;;;;;51.55;30.70;;;;;;;3.89;49.71;101660.19;5087087;28;20206;-75
2022/03/23 05:10:57;;;;;;;45.05;27.52;;;;;;;3.98;49.60;101659.97;5089170;28;20036;-75
2022/03/23 05:13:26;;;;;;;53.55;29.52;;;;;;;3.96;49.75;101666.13;5087589;28;20044;-78
2022/03/23 05:15:53;;;;;;;68.28;37.33;;;;;;;3.89;49.71;101659.31;5089593;28;20131;-75
2022/03/23 05:18:21;;;;;;;72.63;38.00;;;;;;;3.83;49.60;101657.69;5088597;28;20052;-74
2022/03/23 05:20:48;;;;;;;70.50;41.03;;;;;;;3.81;49.81;101654.25;5087379;28;20062;-77
2022/03/23 05:23:15;;;;;;;109.10;53.38;;;;;;;3.79;49.85;101651.69;5090345;28;20055;-74
2022/03/23 05:25:43;;;;;;;212.27;98.97;;;;;;;3.80;50.10;101652.56;5090448;28;20071;-74
2022/03/23 05:28:10;;;;;;;82.75;42.88;;;;;;;3.81;50.20;101651.66;5089109;28;20210;-78
2022/03/23 05:30:38;;;;;;;50.55;28.17;;;;;;;3.83;50.42;101649.84;5090928;28;20066;-76
2022/03/23 05:33:05;;;;;;;45.25;28.13;;;;;;;3.89;50.21;101646.25;5081896;28;20688;-75
2022/03/23 05:35:33;;;;;;;48.83;24.50;;;;;;;3.97;50.32;101641.72;5070856;28;20132;-79
2022/03/23 05:38:00;;;;;;;57.25;30.92;;;;;;;4.08;50.01;101639.72;5068503;28;20579;-82
2022/03/23 05:40:27;;;;;;;53.92;28.75;;;;;;;4.19;50.16;101639.44;5067951;28;20139;-74
2022/03/23 05:42:54;;;;;;;56.30;29.08;;;;;;;4.29;50.02;101640.97;5066099;28;20080;-72
2022/03/23 05:45:21;;;;;;;48.50;25.52;;;;;;;4.42;49.92;101630.22;5067954;28;20458;-74
2022/03/23 05:47:52;;;;;;;38.53;24.50;;;;;;;4.56;49.79;101628.94;5068523;28;20597;-75
2022/03/23 05:50:20;;;;;;;42.83;25.10;;;;;;;4.74;49.57;101626.78;5066729;28;20041;-76
2022/03/23 05:52:46;;;;;;;54.38;27.52;;;;;;;4.87;49.59;101622.06;5067722;28;20052;-73
2022/03/23 05:55:13;;;;;;;47.95;29.23;;;;;;;4.99;49.26;101632.22;5068220;28;20198;-75
2022/03/23 05:57:40;;;;;;;68.35;30.55;;;;;;;5.12;49.28;101624.88;5067217;28;20052;-73
2022/03/23 06:00:11;;;;;;;65.18;31.92;;;;;;;5.26;49.36;101629.75;5068332;28;20481;-76
2022/03/23 06:02:39;;;;;;;75.75;35.05;;;;;;;5.41;48.98;101626.66;5082655;28;20113;-79
2022/03/23 06:05:09;;;;;;;73.90;32.72;;;;;;;5.57;48.94;101626.22;5088071;28;20223;-77
2022/03/23 06:07:36;;;;;;;63.20;32.15;;;;;;;5.70;48.71;101622.31;5091744;28;20127;-71
2022/03/23 06:10:07;;;;;;;53.15;31.27;;;;;;;5.84;48.75;101628.00;5090177;28;20127;-82
2022/03/23 06:12:34;;;;;;;55.95;29.73;;;;;;;6.00;48.57;101630.19;5092474;28;20056;-74
2022/03/23 06:15:01;;;;;;;53.70;27.08;;;;;;;6.15;48.53;101626.22;5097550;28;20702;-80
2022/03/23 06:17:31;;;;;;;49.67;27.52;;;;;;;6.27;48.41;101626.69;5094394;28;20044;-81
2022/03/23 06:20:00;;;;;;;48.13;26.35;;;;;;;6.45;48.36;101624.38;5096865;28;20063;-79
2022/03/23 06:22:30;;;;;;;44.47;24.40;;;;;;;6.61;48.17;101622.06;5103025;28;20484;-77
2022/03/23 06:24:58;;;;;;;38.50;23.52;;;;;;;6.76;48.00;101625.94;5102028;28;20132;-80
2022/03/23 06:27:26;;;;;;;45.15;25.05;;;;;;;6.91;47.97;101625.41;5093211;28;20572;-77
2022/03/23 06:29:53;;;;;;;51.35;27.15;;;;;;;7.05;47.87;101620.53;5092702;28;20040;-80
2022/03/23 06:32:21;;;;;;;45.20;27.30;;;;;;;7.18;47.71;101618.31;5092650;28;20052;-83
2022/03/23 06:34:49;;;;;;;52.78;27.90;;;;;;;7.33;47.59;101624.78;5092467;28;20044;-75
2022/03/23 06:37:16;;;;;;;51.47;28.95;;;;;;;7.50;47.33;101621.50;5089599;28;20047;-78
2022/03/23 06:39:44;;;;;;;50.63;26.77;;;;;;;7.64;47.26;101629.75;5094066;28;20066;-85
2022/03/23 06:42:11;;;;;;;49.60;28.08;;;;;;;7.80;47.11;101637.91;5096861;28;20135;-77
2022/03/23 06:44:39;;;;;;;49.03;28.95;;;;;;;7.96;47.06;101634.66;5095615;28;20040;-80
2022/03/23 06:47:07;;;;;;;49.78;29.67;;;;;;;8.12;47.01;101633.16;5095001;28;20052;-84
2022/03/23 06:49:34;;;;;;;46.75;29.05;;;;;;;8.32;46.86;101634.09;5083640;28;20140;-75
2022/03/23 06:52:01;;;;;;;53.38;30.08;;;;;;;8.47;46.70;101632.66;5087039;28;20074;-79
2022/03/23 06:54:28;;;;;;;54.70;32.33;;;;;;;8.64;46.63;101624.88;5088766;28;20039;-78
2022/03/23 06:56:56;;;;;;;52.58;30.40;;;;;;;8.82;46.63;101628.50;5102229;28;20047;-84
2022/03/23 06:59:25;;;;;;;47.78;26.35;;;;;;;8.98;46.34;101619.03;5102238;28;20040;-73
2022/03/23 07:01:52;;;;;;;48.35;27.17;;;;;;;9.16;46.18;101617.38;5101924;28;20047;-81
2022/03/23 07:04:19;;;;;;;52.03;27.58;;;;;;;9.37;45.80;101615.53;5088901;28;20060;-73
2022/03/23 07:06:46;;;;;;;36.95;23.42;;;;;;;9.53;45.58;101613.06;5079957;28;20098;-75
2022/03/23 07:09:32;;;;;;;43.20;23.67;;;;;;;9.75;45.32;101614.69;5073901;28;20044;-81
2022/03/23 07:12:01;;;;;;;35.97;23.23;;;;;;;10.00;45.02;101617.00;5075423;28;20044;-70
2022/03/23 07:14:29;;;;;;;40.78;22.33;;;;;;;10.18;44.49;101612.63;5076907;28;20088;-81
2022/03/23 07:16:58;;;;;;;39.92;22.90;;;;;;;10.36;44.34;101610.88;5091393;28;20094;-82
2022/03/23 07:19:26;;;;;;;34.80;23.73;;;;;;;10.56;43.94;101611.69;5082142;28;20047;-76
2022/03/23 07:21:53;;;;;;;37.58;22.60;;;;;;;10.77;43.50;101610.56;5105361;28;20139;-80
2022/03/23 07:24:21;;;;;;;34.10;21.83;;;;;;;10.96;43.20;101609.63;5094650;28;20051;-79
2022/03/23 07:26:47;;;;;;;41.67;24.50;;;;;;;11.14;42.59;101606.00;5092464;28;20062;-81
2022/03/23 07:29:16;;;;;;;40.72;22.95;;;;;;;11.33;42.30;101603.22;5090400;28;20078;-80
2022/03/23 07:31:45;;;;;;;39.08;22.92;;;;;;;11.55;41.99;101605.53;5089312;28;20080;-81
2022/03/23 07:34:13;;;;;;;40.78;25.08;;;;;;;11.76;41.35;101606.16;5091968;28;20418;-83
2022/03/23 07:36:42;;;;;;;50.10;24.20;;;;;;;11.93;41.20;101602.59;5093748;28;20059;-80
2022/03/23 07:39:09;;;;;;;43.00;23.52;;;;;;;12.14;40.79;101607.63;5096167;28;20098;-80
2022/03/23 07:41:36;;;;;;;36.47;23.40;;;;;;;12.30;40.14;101603.13;5096845;28;20048;-80
2022/03/23 07:44:03;;;;;;;40.78;22.90;;;;;;;12.48;39.84;101601.19;5091435;28;20571;-79
2022/03/23 07:46:32;;;;;;;46.75;23.90;;;;;;;12.70;39.45;101602.56;5093417;28;20112;-77
2022/03/23 07:48:59;;;;;;;43.03;25.40;;;;;;;12.87;39.27;101594.44;5098295;28;20109;-76
2022/03/23 07:51:26;;;;;;;40.58;23.17;;;;;;;13.06;38.51;101590.69;5091453;28;20677;-80
2022/03/23 07:53:53;;;;;;;40.25;24.15;;;;;;;13.23;38.66;101592.28;5095060;28;20036;-78
2022/03/23 07:56:20;;;;;;;42.05;24.92;;;;;;;13.38;38.19;101586.91;5105395;28;20109;-74
2022/03/23 07:58:47;;;;;;;34.95;24.88;;;;;;;13.55;38.01;101579.66;5101566;28;20231;-76
2022/03/23 08:01:15;;;;;;;39.13;23.92;;;;;;;13.73;37.67;101589.09;5105531;28;20067;-80
2022/03/23 08:03:43;;;;;;;47.65;27.75;;;;;;;13.89;37.40;101578.34;5103976;28;20036;-81
2022/03/23 08:06:12;;;;;;;50.40;28.80;;;;;;;14.07;37.20;101578.09;5100512;28;20095;-78
2022/03/23 08:08:40;;;;;;;42.95;27.02;;;;;;;14.29;36.88;101580.16;5099231;28;20052;-75
2022/03/23 08:11:07;;;;;;;45.40;28.33;;;;;;;14.58;36.44;101572.06;5102796;28;20071;-74
2022/03/23 08:13:39;;;;;;;46.80;28.60;;;;;;;14.92;36.19;101570.56;5099801;28;20083;-76
2022/03/23 08:16:07;;;;;;;45.15;28.10;;;;;;;15.20;35.65;101573.97;5098660;28;20040;-83
2022/03/23 08:18:35;;;;;;;45.78;26.75;;;;;;;15.48;35.48;101571.03;5093205;28;20116;-80
2022/03/23 08:21:05;;;;;;;41.65;27.25;;;;;;;15.85;35.01;101563.03;5090418;28;20104;-78
2022/03/23 08:23:32;;;;;;;42.97;28.85;;;;;;;16.22;34.70;101560.28;5094215;28;20062;-79
2022/03/23 08:26:00;;;;;;;45.13;32.20;;;;;;;16.58;33.97;101566.44;5088666;28;20357;-76
2022/03/23 08:28:27;;;;;;;47.75;31.05;;;;;;;16.75;33.96;101564.28;5094363;28;20147;-81
2022/03/23 08:30:54;;;;;;;49.45;31.38;;;;;;;16.86;33.64;101556.31;5101116;28;20055;-78
2022/03/23 08:33:25;;;;;;;58.88;35.65;;;;;;;16.99;33.39;101554.38;5092787;28;20054;-79
2022/03/23 08:35:53;;;;;;;65.20;39.97;;;;;;;17.26;32.91;101554.97;5092439;28;20073;-79
2022/03/23 08:38:21;;;;;;;56.97;36.90;;;;;;;17.73;32.25;101550.25;5091956;28;20050;-78
2022/03/23 08:40:48;;;;;;;67.43;43.28;;;;;;;18.20;31.62;101555.34;5087048;28;20086;-77
2022/03/23 08:43:15;;;;;;;60.28;40.70;;;;;;;18.47;31.56;101550.31;5087777;28;20683;-79
2022/03/23 08:45:42;;;;;;;62.00;38.75;;;;;;;18.71;31.43;101543.84;5086892;28;20044;-77
2022/03/23 08:48:10;;;;;;;63.28;39.15;;;;;;;18.95;31.16;101540.91;5086525;28;20086;-75
2022/03/23 08:50:37;;;;;;;46.90;32.10;;;;;;;19.08;30.92;101538.81;5084649;28;20055;-75
2022/03/23 08:53:05;;;;;;;50.28;35.10;;;;;;;19.28;30.18;101537.09;5084274;28;20040;-76
2022/03/23 08:55:34;;;;;;;51.08;34.65;;;;;;;19.39;30.17;101548.66;5085032;28;20044;-79
2022/03/23 08:58:02;;;;;;;40.20;29.63;;;;;;;19.82;29.69;101531.41;5089240;28;20048;-82
2022/03/23 09:00:30;;;;;;;45.67;32.05;;;;;;;20.14;29.43;101541.84;5087092;28;20066;-78
2022/03/23 09:02:57;;;;;;;52.53;32.97;;;;;;;20.34;28.87;101534.59;5088084;28;20481;-81
2022/03/23 09:05:24;;;;;;;50.97;31.35;;;;;;;20.63;28.76;101528.34;5087750;28;20523;-83
2022/03/23 09:07:51;;;;;;;50.55;33.60;;;;;;;20.83;28.12;101531.81;5086531;28;20048;-74
2022/03/23 09:10:20;;;;;;;48.83;31.00;;;;;;;21.02;27.95;101524.69;5088998;28;20131;-81
2022/03/23 09:12:48;;;;;;;38.15;28.25;;;;;;;21.29;27.23;101523.84;5086496;28;20052;-76
2022/03/23 09:15:17;;;;;;;47.10;34.83;;;;;;;21.42;27.06;101516.25;5084096;28;20096;-76
2022/03/23 09:17:45;;;;;;;50.30;34.72;;;;;;;21.58;26.79;101521.81;5086237;28;20082;-73
2022/03/23 09:20:14;;;;;;;41.63;28.95;;;;;;;21.83;26.17;101514.00;5063724;28;20050;-74
2022/03/23 09:22:42;;;;;;;45.33;31.85;;;;;;;22.19;26.20;101505.06;5085722;28;20052;-80
2022/03/23 09:25:11;;;;;;;42.83;30.92;;;;;;;22.36;26.00;101500.66;5083730;28;20051;-80
2022/03/23 09:27:39;;;;;;;49.78;32.08;;;;;;;22.21;26.33;101495.81;5095501;28;20142;-80
2022/03/23 09:30:11;;;;;;;43.38;32.33;;;;;;;22.05;26.11;101506.47;5098209;28;20113;-78
2022/03/23 09:32:39;;;;;;;46.22;31.75;;;;;;;22.03;25.62;101500.41;5092496;28;20122;-84
2022/03/23 09:35:06;;;;;;;43.13;28.90;;;;;;;21.94;25.46;101496.78;5096857;28;20040;-76
2022/03/23 09:37:48;;;;;;;38.72;28.00;;;;;;;21.88;24.91;101492.03;5108315;28;20239;-82
2022/03/23 09:40:23;;;;;;;39.33;30.08;;;;;;;22.02;25.18;101487.94;5101769;28;20036;-80
2022/03/23 09:42:50;;;;;;;41.15;28.95;;;;;;;22.23;24.89;101484.91;5098848;28;20052;-81
2022/03/23 09:45:37;;;;;;;37.85;28.38;;;;;;;22.23;24.63;101482.22;5095525;28;20050;-77
2022/03/23 09:48:09;;;;;;;42.50;30.20;;;;;;;22.24;24.76;101476.66;5091599;28;20083;-79
2022/03/23 09:50:38;;;;;;;48.65;30.67;;;;;;;22.30;24.51;101478.75;5094624;28;20113;-79
2022/03/23 09:53:06;;;;;;;42.92;29.55;;;;;;;22.32;24.57;101476.75;5092320;28;20500;-76
2022/03/23 09:55:33;;;;;;;44.42;30.10;;;;;;;22.29;24.37;101470.81;5097382;28;20049;-83
2022/03/23 09:58:02;;;;;;;44.22;28.38;;;;;;;22.28;24.28;101466.47;5096091;28;20129;-79
2022/03/23 10:00:37;;;;;;;42.67;28.35;;;;;;;22.31;24.01;101469.69;5092974;28;20046;-86
2022/03/23 10:03:41;;;;;;;35.00;26.40;;;;;;;22.47;23.86;101460.00;5094299;28;20059;-80
2022/03/23 10:06:55;;;;;;;39.88;27.25;;;;;;;22.66;23.21;101457.06;5091711;28;20044;-79
2022/03/23 10:09:54;;;;;;;41.50;26.10;;;;;;;22.58;23.58;101459.75;5085942;28;20480;-73
2022/03/23 10:12:57;;;;;;;32.63;24.58;;;;;;;22.65;22.82;101450.03;5075542;28;20052;-72
2022/03/23 10:16:36;;;;;;;36.03;24.35;;;;;;;22.63;23.24;101452.00;5074697;28;20137;-80
2022/03/23 10:19:04;;;;;;;35.17;23.13;;;;;;;22.55;22.52;101445.75;5081575;28;20063;-81
2022/03/23 10:21:34;;;;;;;36.00;25.13;;;;;;;22.48;22.59;101435.63;5089369;28;20098;-74
2022/03/23 10:24:33;;;;;;;34.20;22.60;;;;;;;22.47;22.64;101430.38;5082606;28;20550;-81
2022/03/23 10:27:07;;;;;;;30.70;21.50;;;;;;;22.44;21.72;101436.94;5079379;28;20362;-81
2022/03/23 10:29:44;;;;;;;34.30;23.23;;;;;;;22.40;21.35;101438.28;5089807;28;20104;-80
2022/03/23 10:32:14;;;;;;;21.42;17.25;;;;;;;22.35;20.69;101429.00;5088214;28;20116;-77
2022/03/23 10:34:44;;;;;;;24.30;18.52;;;;;;;22.36;20.49;101430.66;5082953;28;20511;-78
2022/03/23 10:37:14;;;;;;;26.33;18.92;;;;;;;22.33;20.02;101419.22;5085780;28;20056;-76
2022/03/23 10:39:42;;;;;;;22.27;15.55;;;;;;;22.00;19.24;101420.81;5072451;28;20055;-79
2022/03/23 10:42:15;;;;;;;27.17;17.02;;;;;;;22.04;19.78;101415.97;5072421;28;20076;-75
2022/03/23 10:44:44;;;;;;;25.75;18.45;;;;;;;22.06;19.81;101409.44;5075932;28;20044;-77
2022/03/23 10:47:26;;;;;;;27.17;17.88;;;;;;;22.12;19.77;101407.97;5100723;28;20073;-78
2022/03/23 10:49:53;;;;;;;31.38;19.20;;;;;;;22.10;19.71;101409.97;5093082;28;20054;-77
2022/03/23 10:52:20;;;;;;;23.67;18.08;;;;;;;22.09;19.92;101413.66;5100839;28;20048;-80
2022/03/23 10:54:55;;;;;;;23.55;18.63;;;;;;;22.19;20.05;101400.94;5102923;28;20083;-77
2022/03/23 10:57:46;;;;;;;29.77;19.27;;;;;;;22.44;20.08;101393.03;5099321;28;20044;-79
2022/03/23 11:00:17;;;;;;;29.40;21.98;;;;;;;22.56;20.17;101404.34;5100479;28;20132;-79
2022/03/23 11:02:51;;;;;;;29.67;20.52;;;;;;;22.53;19.93;101394.75;5100113;28;20112;-77
2022/03/23 11:05:32;;;;;;;31.87;21.43;;;;;;;22.61;19.93;101392.09;5095994;28;20160;-75
2022/03/23 11:08:10;;;;;;;28.20;19.40;;;;;;;22.53;19.83;101394.75;5103719;28;20610;-77
2022/03/23 11:16:08;;;;;;;31.77;22.23;;;;;;;22.22;19.25;101370.16;5067897;28;20190;-76
2022/03/23 11:18:37;;;;;;;33.88;21.95;;;;;;;21.90;19.43;101366.31;5065165;28;20784;-79
2022/03/23 11:21:04;;;;;;;28.73;20.58;;;;;;;21.99;19.95;101362.66;5066620;28;20572;-78
2022/03/23 11:23:35;;;;;;;24.77;16.48;;;;;;;22.08;20.08;101359.00;5067250;28;20139;-78
2022/03/23 11:26:05;;;;;;;26.45;18.60;;;;;;;22.13;19.97;101347.78;5066450;28;20051;-79
2022/03/23 11:28:37;;;;;;;38.40;18.85;;;;;;;22.25;19.44;101353.72;5077564;28;20037;-86
2022/03/23 11:31:06;;;;;;;34.10;22.05;;;;;;;21.99;18.79;101343.84;5064849;28;20520;-75
2022/03/23 11:33:34;;;;;;;26.25;19.85;;;;;;;21.96;19.43;101338.75;5071705;28;20094;-75
2022/03/23 11:36:08;;;;;;;22.80;18.95;;;;;;;22.17;19.57;101333.00;5092135;28;20048;-82
2022/03/23 11:38:35;;;;;;;29.52;19.55;;;;;;;22.33;19.71;101333.09;5090901;28;20404;-80